sensor_id;sensor_type;location;lat;lon;timestamp;temperature;humidity
9403;DHT22;4741;49.834;10.740;2022-07-19T00:01:52;16.30;99.90
9403;DHT22;4741;49.834;10.740;2022-07-19T00:04:18;17.40;99.90
9403;DHT22;4741;49.834;10.740;2022-07-19T00:06:45;16.60;99.90
9403;DHT22;4741;49.834;10.740;2022-07-19T00:09:12;16.20;99.90
9403;DHT22;4741;49.834;10.740;2022-07-19T00:14:05;16.20;99.90
9403;DHT22;4741;49.834;10.740;2022-07-19T00:16:32;16.20;99.90
9403;DHT22;4741;49.834;10.740;2022-07-19T00:18:59;16.30;99.90
9403;DHT22;4741;49.834;10.740;2022-07-19T00:21:26;16.20;99.90
9403;DHT22;4741;49.834;10.740;2022-07-19T00:23:52;16.10;99.90
9403;DHT22;4741;49.834;10.740;2022-07-19T00:26:19;16.20;99.90
9403;DHT22;4741;49.834;10.740;2022-07-19T00:28:46;16.20;99.90
9403;DHT22;4741;49.834;10.740;2022-07-19T00:31:12;16.10;99.90
9403;DHT22;4741;49.834;10.740;2022-07-19T00:33:39;16.00;99.90
9403;DHT22;4741;49.834;10.740;2022-07-19T00:36:06;15.90;99.90
9403;DHT22;4741;49.834;10.740;2022-07-19T00:38:33;15.70;99.90
9403;DHT22;4741;49.834;10.740;2022-07-19T00:41:00;15.70;99.90
9403;DHT22;4741;49.834;10.740;2022-07-19T00:43:27;15.60;99.90
9403;DHT22;4741;49.834;10.740;2022-07-19T00:45:54;15.50;99.90
9403;DHT22;4741;49.834;10.740;2022-07-19T00:48:20;15.50;99.90
9403;DHT22;4741;49.834;10.740;2022-07-19T00:50:48;15.50;99.90
9403;DHT22;4741;49.834;10.740;2022-07-19T00:53:14;15.30;99.90
9403;DHT22;4741;49.834;10.740;2022-07-19T00:55:41;15.30;99.90
9403;DHT22;4741;49.834;10.740;2022-07-19T00:58:10;15.30;99.90
9403;DHT22;4741;49.834;10.740;2022-07-19T01:00:37;15.50;99.90
9403;DHT22;4741;49.834;10.740;2022-07-19T01:03:06;16.70;99.90
9403;DHT22;4741;49.834;10.740;2022-07-19T01:05:34;15.40;99.90
9403;DHT22;4741;49.834;10.740;2022-07-19T01:08:01;15.30;99.90
9403;DHT22;4741;49.834;10.740;2022-07-19T01:10:28;15.50;99.90
9403;DHT22;4741;49.834;10.740;2022-07-19T01:12:54;15.40;99.90
9403;DHT22;4741;49.834;10.740;2022-07-19T01:15:23;15.10;99.90
9403;DHT22;4741;49.834;10.740;2022-07-19T01:17:50;15.00;99.90
9403;DHT22;4741;49.834;10.740;2022-07-19T01:20:17;15.00;99.90
9403;DHT22;4741;49.834;10.740;2022-07-19T01:26:12;15.20;99.90
9403;DHT22;4741;49.834;10.740;2022-07-19T01:28:39;14.70;99.90
9403;DHT22;4741;49.834;10.740;2022-07-19T01:31:06;14.60;99.90
9403;DHT22;4741;49.834;10.740;2022-07-19T01:33:38;14.00;99.90
9403;DHT22;4741;49.834;10.740;2022-07-19T01:36:05;14.50;99.90
9403;DHT22;4741;49.834;10.740;2022-07-19T01:38:32;14.60;99.90
9403;DHT22;4741;49.834;10.740;2022-07-19T01:40:58;14.50;99.90
9403;DHT22;4741;49.834;10.740;2022-07-19T01:43:25;14.60;99.90
9403;DHT22;4741;49.834;10.740;2022-07-19T01:45:52;14.50;99.90
9403;DHT22;4741;49.834;10.740;2022-07-19T01:48:20;14.40;99.90
9403;DHT22;4741;49.834;10.740;2022-07-19T01:50:47;14.60;99.90
9403;DHT22;4741;49.834;10.740;2022-07-19T01:53:13;14.60;99.90
9403;DHT22;4741;49.834;10.740;2022-07-19T01:55:40;14.60;99.90
9403;DHT22;4741;49.834;10.740;2022-07-19T01:58:07;14.50;99.90
9403;DHT22;4741;49.834;10.740;2022-07-19T02:00:34;14.80;99.90
9403;DHT22;4741;49.834;10.740;2022-07-19T02:03:00;14.40;99.90
9403;DHT22;4741;49.834;10.740;2022-07-19T02:05:27;14.40;99.90
9403;DHT22;4741;49.834;10.740;2022-07-19T02:07:54;15.40;99.90
9403;DHT22;4741;49.834;10.740;2022-07-19T02:10:21;14.50;99.90
9403;DHT22;4741;49.834;10.740;2022-07-19T02:12:48;14.50;99.90
9403;DHT22;4741;49.834;10.740;2022-07-19T02:15:15;14.30;99.90
9403;DHT22;4741;49.834;10.740;2022-07-19T02:17:42;14.40;99.90
9403;DHT22;4741;49.834;10.740;2022-07-19T02:20:09;14.40;99.90
9403;DHT22;4741;49.834;10.740;2022-07-19T02:22:36;14.30;99.90
9403;DHT22;4741;49.834;10.740;2022-07-19T02:25:02;14.20;99.90
9403;DHT22;4741;49.834;10.740;2022-07-19T02:27:30;14.10;99.90
9403;DHT22;4741;49.834;10.740;2022-07-19T02:29:56;14.00;99.90
9403;DHT22;4741;49.834;10.740;2022-07-19T02:32:23;12.90;99.90
9403;DHT22;4741;49.834;10.740;2022-07-19T02:34:50;13.90;99.90
9403;DHT22;4741;49.834;10.740;2022-07-19T02:37:17;13.50;99.90
9403;DHT22;4741;49.834;10.740;2022-07-19T02:39:44;15.10;99.90
9403;DHT22;4741;49.834;10.740;2022-07-19T02:42:10;13.60;99.90
9403;DHT22;4741;49.834;10.740;2022-07-19T02:44:37;13.80;99.90
9403;DHT22;4741;49.834;10.740;2022-07-19T02:47:04;14.00;99.90
9403;DHT22;4741;49.834;10.740;2022-07-19T02:49:30;13.70;99.90
9403;DHT22;4741;49.834;10.740;2022-07-19T02:54:24;13.90;99.90
9403;DHT22;4741;49.834;10.740;2022-07-19T02:56:51;13.90;99.90
9403;DHT22;4741;49.834;10.740;2022-07-19T02:59:17;13.90;99.90
9403;DHT22;4741;49.834;10.740;2022-07-19T03:01:44;13.80;99.90
9403;DHT22;4741;49.834;10.740;2022-07-19T03:04:11;13.60;99.90
9403;DHT22;4741;49.834;10.740;2022-07-19T03:06:38;13.00;99.90
9403;DHT22;4741;49.834;10.740;2022-07-19T03:09:05;12.40;99.90
9403;DHT22;4741;49.834;10.740;2022-07-19T03:11:31;13.40;99.90
9403;DHT22;4741;49.834;10.740;2022-07-19T03:13:58;13.30;99.90
9403;DHT22;4741;49.834;10.740;2022-07-19T03:16:25;13.60;99.90
9403;DHT22;4741;49.834;10.740;2022-07-19T03:18:52;13.40;99.90
9403;DHT22;4741;49.834;10.740;2022-07-19T03:21:18;13.20;99.90
9403;DHT22;4741;49.834;10.740;2022-07-19T03:23:45;12.80;99.90
9403;DHT22;4741;49.834;10.740;2022-07-19T03:26:12;12.40;99.90
9403;DHT22;4741;49.834;10.740;2022-07-19T03:28:38;12.90;99.90
9403;DHT22;4741;49.834;10.740;2022-07-19T03:31:05;12.30;99.90
9403;DHT22;4741;49.834;10.740;2022-07-19T03:33:32;12.80;99.90
9403;DHT22;4741;49.834;10.740;2022-07-19T03:35:59;14.80;99.90
9403;DHT22;4741;49.834;10.740;2022-07-19T03:38:25;13.10;99.90
9403;DHT22;4741;49.834;10.740;2022-07-19T03:40:52;13.00;99.90
9403;DHT22;4741;49.834;10.740;2022-07-19T03:48:14;12.90;99.90
9403;DHT22;4741;49.834;10.740;2022-07-19T03:50:41;13.00;99.90
9403;DHT22;4741;49.834;10.740;2022-07-19T03:53:07;12.80;99.90
9403;DHT22;4741;49.834;10.740;2022-07-19T03:55:34;12.70;99.90
9403;DHT22;4741;49.834;10.740;2022-07-19T03:58:01;12.30;99.90
9403;DHT22;4741;49.834;10.740;2022-07-19T04:00:27;12.40;99.90
9403;DHT22;4741;49.834;10.740;2022-07-19T04:02:54;12.40;99.90
9403;DHT22;4741;49.834;10.740;2022-07-19T04:05:21;12.80;99.90
9403;DHT22;4741;49.834;10.740;2022-07-19T04:07:48;12.80;99.90
9403;DHT22;4741;49.834;10.740;2022-07-19T04:10:15;12.80;99.90
9403;DHT22;4741;49.834;10.740;2022-07-19T04:12:41;12.80;99.90
9403;DHT22;4741;49.834;10.740;2022-07-19T04:15:08;13.10;99.90
9403;DHT22;4741;49.834;10.740;2022-07-19T04:17:35;13.20;99.90
9403;DHT22;4741;49.834;10.740;2022-07-19T04:20:03;13.20;99.90
9403;DHT22;4741;49.834;10.740;2022-07-19T04:22:30;13.00;99.90
9403;DHT22;4741;49.834;10.740;2022-07-19T04:24:57;13.20;99.90
9403;DHT22;4741;49.834;10.740;2022-07-19T04:27:24;13.30;99.90
9403;DHT22;4741;49.834;10.740;2022-07-19T04:29:51;14.00;99.90
9403;DHT22;4741;49.834;10.740;2022-07-19T04:32:17;14.10;99.90
9403;DHT22;4741;49.834;10.740;2022-07-19T04:34:46;13.50;99.90
9403;DHT22;4741;49.834;10.740;2022-07-19T04:37:13;13.40;99.90
9403;DHT22;4741;49.834;10.740;2022-07-19T04:39:40;13.40;99.90
9403;DHT22;4741;49.834;10.740;2022-07-19T04:44:34;13.80;99.90
9403;DHT22;4741;49.834;10.740;2022-07-19T04:47:01;15.50;99.90
9403;DHT22;4741;49.834;10.740;2022-07-19T04:49:28;14.30;99.90
9403;DHT22;4741;49.834;10.740;2022-07-19T04:51:54;14.90;99.90
9403;DHT22;4741;49.834;10.740;2022-07-19T04:54:21;14.50;99.90
9403;DHT22;4741;49.834;10.740;2022-07-19T04:56:48;13.90;99.90
9403;DHT22;4741;49.834;10.740;2022-07-19T04:59:15;13.90;99.90
9403;DHT22;4741;49.834;10.740;2022-07-19T05:01:41;14.70;99.90
9403;DHT22;4741;49.834;10.740;2022-07-19T05:04:15;14.30;99.90
9403;DHT22;4741;49.834;10.740;2022-07-19T05:06:42;14.60;99.90
9403;DHT22;4741;49.834;10.740;2022-07-19T05:09:11;14.60;99.90
9403;DHT22;4741;49.834;10.740;2022-07-19T05:11:43;15.50;99.90
9403;DHT22;4741;49.834;10.740;2022-07-19T05:14:10;14.90;99.90
9403;DHT22;4741;49.834;10.740;2022-07-19T05:16:37;14.60;99.90
9403;DHT22;4741;49.834;10.740;2022-07-19T05:19:03;14.90;99.90
9403;DHT22;4741;49.834;10.740;2022-07-19T05:21:30;14.10;99.90
9403;DHT22;4741;49.834;10.740;2022-07-19T05:23:57;15.50;99.90
9403;DHT22;4741;49.834;10.740;2022-07-19T05:26:24;15.40;99.90
9403;DHT22;4741;49.834;10.740;2022-07-19T05:28:51;15.60;99.90
9403;DHT22;4741;49.834;10.740;2022-07-19T05:31:17;17.40;99.90
9403;DHT22;4741;49.834;10.740;2022-07-19T05:33:47;14.90;99.90
9403;DHT22;4741;49.834;10.740;2022-07-19T05:36:14;15.50;99.90
9403;DHT22;4741;49.834;10.740;2022-07-19T05:38:41;15.80;99.90
9403;DHT22;4741;49.834;10.740;2022-07-19T05:41:07;16.10;99.90
9403;DHT22;4741;49.834;10.740;2022-07-19T05:43:36;16.50;99.90
9403;DHT22;4741;49.834;10.740;2022-07-19T05:46:03;14.90;99.90
9403;DHT22;4741;49.834;10.740;2022-07-19T05:48:30;16.10;99.90
9403;DHT22;4741;49.834;10.740;2022-07-19T05:50:58;16.60;99.90
9403;DHT22;4741;49.834;10.740;2022-07-19T05:53:25;17.90;99.90
9403;DHT22;4741;49.834;10.740;2022-07-19T05:55:54;16.50;99.90
9403;DHT22;4741;49.834;10.740;2022-07-19T06:00:54;17.00;99.90
9403;DHT22;4741;49.834;10.740;2022-07-19T06:03:39;18.50;99.90
9403;DHT22;4741;49.834;10.740;2022-07-19T06:06:06;17.90;99.90
9403;DHT22;4741;49.834;10.740;2022-07-19T06:08:33;19.10;99.90
9403;DHT22;4741;49.834;10.740;2022-07-19T06:11:03;17.60;99.90
9403;DHT22;4741;49.834;10.740;2022-07-19T06:16:01;17.90;99.90
9403;DHT22;4741;49.834;10.740;2022-07-19T06:18:28;19.30;99.90
9403;DHT22;4741;49.834;10.740;2022-07-19T06:21:15;18.30;99.90
9403;DHT22;4741;49.834;10.740;2022-07-19T06:23:50;19.50;99.90
9403;DHT22;4741;49.834;10.740;2022-07-19T06:26:26;19.10;99.90
9403;DHT22;4741;49.834;10.740;2022-07-19T06:28:53;20.40;99.90
9403;DHT22;4741;49.834;10.740;2022-07-19T06:31:20;20.00;99.90
9403;DHT22;4741;49.834;10.740;2022-07-19T06:33:47;19.00;99.90
9403;DHT22;4741;49.834;10.740;2022-07-19T06:36:14;19.80;99.90
9403;DHT22;4741;49.834;10.740;2022-07-19T06:38:41;20.70;99.90
9403;DHT22;4741;49.834;10.740;2022-07-19T06:41:09;20.20;99.90
9403;DHT22;4741;49.834;10.740;2022-07-19T06:43:43;20.10;99.90
9403;DHT22;4741;49.834;10.740;2022-07-19T06:46:10;20.70;99.90
9403;DHT22;4741;49.834;10.740;2022-07-19T06:48:37;20.40;99.90
9403;DHT22;4741;49.834;10.740;2022-07-19T06:51:07;20.70;99.90
9403;DHT22;4741;49.834;10.740;2022-07-19T06:53:34;21.20;99.90
9403;DHT22;4741;49.834;10.740;2022-07-19T06:56:01;21.40;99.90
9403;DHT22;4741;49.834;10.740;2022-07-19T06:58:28;21.60;99.90
9403;DHT22;4741;49.834;10.740;2022-07-19T07:00:56;21.90;99.90
9403;DHT22;4741;49.834;10.740;2022-07-19T07:08:16;22.30;99.90
9403;DHT22;4741;49.834;10.740;2022-07-19T07:13:11;22.70;99.90
9403;DHT22;4741;49.834;10.740;2022-07-19T07:15:38;22.90;99.90
9403;DHT22;4741;49.834;10.740;2022-07-19T07:18:06;23.00;99.90
9403;DHT22;4741;49.834;10.740;2022-07-19T07:20:33;24.10;99.90
9403;DHT22;4741;49.834;10.740;2022-07-19T07:23:01;24.00;99.90
9403;DHT22;4741;49.834;10.740;2022-07-19T07:27:55;23.40;99.90
9403;DHT22;4741;49.834;10.740;2022-07-19T07:30:21;24.10;99.90
9403;DHT22;4741;49.834;10.740;2022-07-19T07:35:15;24.60;99.90
9403;DHT22;4741;49.834;10.740;2022-07-19T07:37:42;25.10;99.90
9403;DHT22;4741;49.834;10.740;2022-07-19T07:40:09;25.50;99.90
9403;DHT22;4741;49.834;10.740;2022-07-19T07:42:36;25.70;99.90
9403;DHT22;4741;49.834;10.740;2022-07-19T07:45:02;25.80;99.90
9403;DHT22;4741;49.834;10.740;2022-07-19T07:47:29;26.10;99.90
9403;DHT22;4741;49.834;10.740;2022-07-19T07:49:56;26.30;99.90
9403;DHT22;4741;49.834;10.740;2022-07-19T07:52:22;26.30;99.90
9403;DHT22;4741;49.834;10.740;2022-07-19T07:54:49;26.40;99.90
9403;DHT22;4741;49.834;10.740;2022-07-19T07:57:38;27.80;99.90
9403;DHT22;4741;49.834;10.740;2022-07-19T08:00:05;27.20;99.90
9403;DHT22;4741;49.834;10.740;2022-07-19T08:02:37;26.90;99.60
9403;DHT22;4741;49.834;10.740;2022-07-19T08:05:04;27.10;99.80
9403;DHT22;4741;49.834;10.740;2022-07-19T08:07:31;28.10;99.90
9403;DHT22;4741;49.834;10.740;2022-07-19T08:09:57;27.60;97.80
9403;DHT22;4741;49.834;10.740;2022-07-19T08:12:25;27.60;97.80
9403;DHT22;4741;49.834;10.740;2022-07-19T08:14:52;27.80;97.20
9403;DHT22;4741;49.834;10.740;2022-07-19T08:17:19;28.90;99.90
9403;DHT22;4741;49.834;10.740;2022-07-19T08:19:46;28.90;99.90
9403;DHT22;4741;49.834;10.740;2022-07-19T08:22:16;29.20;99.90
9403;DHT22;4741;49.834;10.740;2022-07-19T08:24:43;27.90;99.90
9403;DHT22;4741;49.834;10.740;2022-07-19T08:27:10;28.60;99.90
9403;DHT22;4741;49.834;10.740;2022-07-19T08:29:37;27.90;99.90
9403;DHT22;4741;49.834;10.740;2022-07-19T08:32:09;29.40;99.90
9403;DHT22;4741;49.834;10.740;2022-07-19T08:34:37;29.10;99.90
9403;DHT22;4741;49.834;10.740;2022-07-19T08:37:04;28.20;90.90
9403;DHT22;4741;49.834;10.740;2022-07-19T08:39:34;28.40;90.90
9403;DHT22;4741;49.834;10.740;2022-07-19T08:42:02;28.80;91.70
9403;DHT22;4741;49.834;10.740;2022-07-19T08:51:53;28.90;99.90
9403;DHT22;4741;49.834;10.740;2022-07-19T08:56:48;28.60;99.90
9403;DHT22;4741;49.834;10.740;2022-07-19T08:59:33;29.80;99.90
9403;DHT22;4741;49.834;10.740;2022-07-19T09:02:00;29.90;99.90
9403;DHT22;4741;49.834;10.740;2022-07-19T09:04:30;29.20;99.90
9403;DHT22;4741;49.834;10.740;2022-07-19T09:07:15;29.70;95.40
9403;DHT22;4741;49.834;10.740;2022-07-19T09:09:44;30.50;99.30
9403;DHT22;4741;49.834;10.740;2022-07-19T09:12:11;30.60;94.40
9403;DHT22;4741;49.834;10.740;2022-07-19T09:14:39;30.20;90.60
9403;DHT22;4741;49.834;10.740;2022-07-19T09:37:06;30.60;73.50
9403;DHT22;4741;49.834;10.740;2022-07-19T09:39:36;30.70;72.30
9403;DHT22;4741;49.834;10.740;2022-07-19T09:42:05;32.20;77.60
9403;DHT22;4741;49.834;10.740;2022-07-19T09:44:32;30.90;74.80
9403;DHT22;4741;49.834;10.740;2022-07-19T09:47:01;31.50;75.10
9403;DHT22;4741;49.834;10.740;2022-07-19T09:49:36;30.60;72.40
9403;DHT22;4741;49.834;10.740;2022-07-19T09:52:03;31.10;71.20
9403;DHT22;4741;49.834;10.740;2022-07-19T09:54:30;31.10;71.70
9403;DHT22;4741;49.834;10.740;2022-07-19T09:56:58;31.10;68.90
9403;DHT22;4741;49.834;10.740;2022-07-19T09:59:25;31.80;68.50
9403;DHT22;4741;49.834;10.740;2022-07-19T10:01:53;31.60;69.80
9403;DHT22;4741;49.834;10.740;2022-07-19T10:04:24;32.10;67.10
9403;DHT22;4741;49.834;10.740;2022-07-19T10:06:51;31.60;68.80
9403;DHT22;4741;49.834;10.740;2022-07-19T10:09:19;31.70;67.30
9403;DHT22;4741;49.834;10.740;2022-07-19T10:11:54;31.50;67.00
9403;DHT22;4741;49.834;10.740;2022-07-19T10:14:21;31.90;68.40
9403;DHT22;4741;49.834;10.740;2022-07-19T10:19:43;32.60;65.50
9403;DHT22;4741;49.834;10.740;2022-07-19T10:22:10;32.90;61.80
9403;DHT22;4741;49.834;10.740;2022-07-19T10:39:36;34.40;59.50
9403;DHT22;4741;49.834;10.740;2022-07-19T11:06:37;34.70;55.30
9403;DHT22;4741;49.834;10.740;2022-07-19T11:14:08;35.40;54.40
9403;DHT22;4741;49.834;10.740;2022-07-19T14:16:34;40.40;39.20
9403;DHT22;4741;49.834;10.740;2022-07-19T14:29:52;40.70;37.50
9403;DHT22;4741;49.834;10.740;2022-07-19T14:32:19;41.50;40.20
9403;DHT22;4741;49.834;10.740;2022-07-19T14:34:45;42.10;41.00
9403;DHT22;4741;49.834;10.740;2022-07-19T14:37:12;42.10;45.00
9403;DHT22;4741;49.834;10.740;2022-07-19T14:39:39;40.30;41.20
9403;DHT22;4741;49.834;10.740;2022-07-19T14:42:06;40.90;42.80
9403;DHT22;4741;49.834;10.740;2022-07-19T14:44:36;40.10;65.30
9403;DHT22;4741;49.834;10.740;2022-07-19T14:47:03;41.40;65.70
9403;DHT22;4741;49.834;10.740;2022-07-19T14:49:30;41.90;40.80
9403;DHT22;4741;49.834;10.740;2022-07-19T14:51:57;40.70;70.00
9403;DHT22;4741;49.834;10.740;2022-07-19T14:54:26;41.70;36.90
9403;DHT22;4741;49.834;10.740;2022-07-19T14:57:10;41.70;37.80
9403;DHT22;4741;49.834;10.740;2022-07-19T14:59:36;43.60;55.10
9403;DHT22;4741;49.834;10.740;2022-07-19T15:02:15;41.90;37.30
9403;DHT22;4741;49.834;10.740;2022-07-19T15:04:41;41.40;37.20
9403;DHT22;4741;49.834;10.740;2022-07-19T15:07:11;41.20;37.00
9403;DHT22;4741;49.834;10.740;2022-07-19T15:09:38;41.40;39.00
9403;DHT22;4741;49.834;10.740;2022-07-19T15:12:05;41.60;38.00
9403;DHT22;4741;49.834;10.740;2022-07-19T15:14:47;41.60;58.20
9403;DHT22;4741;49.834;10.740;2022-07-19T15:18:11;41.70;36.60
9403;DHT22;4741;49.834;10.740;2022-07-19T15:20:58;43.00;55.60
9403;DHT22;4741;49.834;10.740;2022-07-19T15:23:59;42.30;35.50
9403;DHT22;4741;49.834;10.740;2022-07-19T15:26:40;42.30;36.00
9403;DHT22;4741;49.834;10.740;2022-07-19T15:29:07;43.00;35.80
9403;DHT22;4741;49.834;10.740;2022-07-19T15:31:34;42.10;35.30
9403;DHT22;4741;49.834;10.740;2022-07-19T15:34:04;42.00;36.00
9403;DHT22;4741;49.834;10.740;2022-07-19T15:36:31;42.20;35.80
9403;DHT22;4741;49.834;10.740;2022-07-19T15:38:58;42.10;36.00
9403;DHT22;4741;49.834;10.740;2022-07-19T15:41:25;42.20;35.40
9403;DHT22;4741;49.834;10.740;2022-07-19T15:43:56;41.90;35.40
9403;DHT22;4741;49.834;10.740;2022-07-19T15:46:25;42.50;34.90
9403;DHT22;4741;49.834;10.740;2022-07-19T15:49:19;42.40;35.30
9403;DHT22;4741;49.834;10.740;2022-07-19T15:51:46;42.70;35.80
9403;DHT22;4741;49.834;10.740;2022-07-19T15:54:13;41.90;36.40
9403;DHT22;4741;49.834;10.740;2022-07-19T15:56:39;41.60;35.90
9403;DHT22;4741;49.834;10.740;2022-07-19T15:59:06;42.00;36.30
9403;DHT22;4741;49.834;10.740;2022-07-19T16:01:33;41.30;34.90
9403;DHT22;4741;49.834;10.740;2022-07-19T16:04:00;41.50;36.30
9403;DHT22;4741;49.834;10.740;2022-07-19T16:06:27;41.50;36.30
9403;DHT22;4741;49.834;10.740;2022-07-19T16:08:55;41.20;36.20
9403;DHT22;4741;49.834;10.740;2022-07-19T16:11:22;41.20;36.20
9403;DHT22;4741;49.834;10.740;2022-07-19T16:13:49;41.30;35.70
9403;DHT22;4741;49.834;10.740;2022-07-19T16:16:15;41.30;36.10
9403;DHT22;4741;49.834;10.740;2022-07-19T16:18:42;41.40;36.40
9403;DHT22;4741;49.834;10.740;2022-07-19T16:21:10;40.60;35.40
9403;DHT22;4741;49.834;10.740;2022-07-19T16:23:38;40.70;36.20
9403;DHT22;4741;49.834;10.740;2022-07-19T16:26:05;39.90;35.90
9403;DHT22;4741;49.834;10.740;2022-07-19T16:28:32;41.30;36.20
9403;DHT22;4741;49.834;10.740;2022-07-19T16:30:58;41.30;36.20
9403;DHT22;4741;49.834;10.740;2022-07-19T16:33:26;41.40;36.00
9403;DHT22;4741;49.834;10.740;2022-07-19T16:35:53;41.20;36.20
9403;DHT22;4741;49.834;10.740;2022-07-19T16:38:20;41.00;35.80
9403;DHT22;4741;49.834;10.740;2022-07-19T16:40:47;40.60;34.90
9403;DHT22;4741;49.834;10.740;2022-07-19T16:43:13;41.10;36.00
9403;DHT22;4741;49.834;10.740;2022-07-19T16:48:07;40.30;34.40
9403;DHT22;4741;49.834;10.740;2022-07-19T16:50:34;40.70;36.20
9403;DHT22;4741;49.834;10.740;2022-07-19T16:53:01;40.80;35.70
9403;DHT22;4741;49.834;10.740;2022-07-19T16:55:28;41.00;35.80
9403;DHT22;4741;49.834;10.740;2022-07-19T16:57:55;40.50;36.20
9403;DHT22;4741;49.834;10.740;2022-07-19T17:07:43;37.00;38.30
9403;DHT22;4741;49.834;10.740;2022-07-19T17:12:57;36.30;70.40
9403;DHT22;4741;49.834;10.740;2022-07-19T17:15:24;36.10;40.50
9403;DHT22;4741;49.834;10.740;2022-07-19T17:17:51;35.50;40.90
9403;DHT22;4741;49.834;10.740;2022-07-19T17:20:17;35.70;41.10
9403;DHT22;4741;49.834;10.740;2022-07-19T17:22:44;35.40;40.90
9403;DHT22;4741;49.834;10.740;2022-07-19T17:25:11;35.00;41.00
9403;DHT22;4741;49.834;10.740;2022-07-19T17:27:37;34.80;41.30
9403;DHT22;4741;49.834;10.740;2022-07-19T17:30:04;35.10;41.20
9403;DHT22;4741;49.834;10.740;2022-07-19T17:32:34;34.40;41.20
9403;DHT22;4741;49.834;10.740;2022-07-19T17:35:02;35.10;47.00
9403;DHT22;4741;49.834;10.740;2022-07-19T17:37:29;33.20;42.10
9403;DHT22;4741;49.834;10.740;2022-07-19T17:39:56;32.90;42.60
9403;DHT22;4741;49.834;10.740;2022-07-19T17:42:23;33.00;50.90
9403;DHT22;4741;49.834;10.740;2022-07-19T17:44:50;33.50;51.30
9403;DHT22;4741;49.834;10.740;2022-07-19T17:47:18;32.70;43.20
9403;DHT22;4741;49.834;10.740;2022-07-19T17:49:45;34.80;44.30
9403;DHT22;4741;49.834;10.740;2022-07-19T17:52:12;32.80;54.10
9403;DHT22;4741;49.834;10.740;2022-07-19T17:54:38;35.10;59.60
9403;DHT22;4741;49.834;10.740;2022-07-19T17:57:12;34.90;54.20
9403;DHT22;4741;49.834;10.740;2022-07-19T17:59:39;34.10;55.30
9403;DHT22;4741;49.834;10.740;2022-07-19T18:02:06;32.90;46.20
9403;DHT22;4741;49.834;10.740;2022-07-19T18:04:52;33.80;53.20
9403;DHT22;4741;49.834;10.740;2022-07-19T18:07:19;34.60;63.60
9403;DHT22;4741;49.834;10.740;2022-07-19T18:09:46;33.90;47.00
9403;DHT22;4741;49.834;10.740;2022-07-19T18:12:13;32.70;45.40
9403;DHT22;4741;49.834;10.740;2022-07-19T18:14:39;32.50;45.90
9403;DHT22;4741;49.834;10.740;2022-07-19T18:17:06;32.70;46.00
9403;DHT22;4741;49.834;10.740;2022-07-19T18:19:35;32.20;45.70
9403;DHT22;4741;49.834;10.740;2022-07-19T18:22:03;32.40;45.90
9403;DHT22;4741;49.834;10.740;2022-07-19T18:24:30;32.30;46.30
9403;DHT22;4741;49.834;10.740;2022-07-19T18:26:56;32.20;46.30
9403;DHT22;4741;49.834;10.740;2022-07-19T18:29:23;32.00;46.40
9403;DHT22;4741;49.834;10.740;2022-07-19T18:31:52;32.60;47.80
9403;DHT22;4741;49.834;10.740;2022-07-19T18:34:19;31.90;47.30
9403;DHT22;4741;49.834;10.740;2022-07-19T18:36:46;31.70;47.30
9403;DHT22;4741;49.834;10.740;2022-07-19T18:39:15;32.00;48.60
9403;DHT22;4741;49.834;10.740;2022-07-19T18:41:41;31.50;47.30
9403;DHT22;4741;49.834;10.740;2022-07-19T18:44:08;31.40;47.70
9403;DHT22;4741;49.834;10.740;2022-07-19T18:46:35;31.30;48.50
9403;DHT22;4741;49.834;10.740;2022-07-19T18:49:02;31.70;50.80
9403;DHT22;4741;49.834;10.740;2022-07-19T18:51:29;30.90;52.30
9403;DHT22;4741;49.834;10.740;2022-07-19T18:53:56;30.60;53.70
9403;DHT22;4741;49.834;10.740;2022-07-19T18:56:23;30.50;56.00
9403;DHT22;4741;49.834;10.740;2022-07-19T18:58:49;30.40;56.30
9403;DHT22;4741;49.834;10.740;2022-07-19T19:01:16;29.90;73.80
9403;DHT22;4741;49.834;10.740;2022-07-19T19:03:43;29.80;66.20
9403;DHT22;4741;49.834;10.740;2022-07-19T19:06:10;29.40;58.30
9403;DHT22;4741;49.834;10.740;2022-07-19T19:08:38;29.80;59.20
9403;DHT22;4741;49.834;10.740;2022-07-19T19:11:04;29.30;59.60
9403;DHT22;4741;49.834;10.740;2022-07-19T19:13:31;29.00;59.90
9403;DHT22;4741;49.834;10.740;2022-07-19T19:15:58;28.80;59.90
9403;DHT22;4741;49.834;10.740;2022-07-19T19:18:26;28.60;60.60
9403;DHT22;4741;49.834;10.740;2022-07-19T19:20:59;28.40;61.00
9403;DHT22;4741;49.834;10.740;2022-07-19T19:23:25;28.20;61.30
9403;DHT22;4741;49.834;10.740;2022-07-19T19:25:52;28.10;61.90
9403;DHT22;4741;49.834;10.740;2022-07-19T19:28:19;27.80;62.40
9403;DHT22;4741;49.834;10.740;2022-07-19T19:30:45;28.00;63.40
9403;DHT22;4741;49.834;10.740;2022-07-19T19:33:12;27.50;63.30
9403;DHT22;4741;49.834;10.740;2022-07-19T19:35:39;27.40;64.20
9403;DHT22;4741;49.834;10.740;2022-07-19T19:38:06;27.30;64.70
9403;DHT22;4741;49.834;10.740;2022-07-19T19:40:33;27.00;65.10
9403;DHT22;4741;49.834;10.740;2022-07-19T19:42:59;26.90;65.20
9403;DHT22;4741;49.834;10.740;2022-07-19T19:45:26;26.70;65.30
9403;DHT22;4741;49.834;10.740;2022-07-19T19:47:53;26.60;65.90
9403;DHT22;4741;49.834;10.740;2022-07-19T19:50:20;26.00;66.00
9403;DHT22;4741;49.834;10.740;2022-07-19T19:52:47;26.20;66.90
9403;DHT22;4741;49.834;10.740;2022-07-19T19:55:14;25.30;94.80
9403;DHT22;4741;49.834;10.740;2022-07-19T19:57:41;25.20;85.20
9403;DHT22;4741;49.834;10.740;2022-07-19T20:00:09;25.70;94.20
9403;DHT22;4741;49.834;10.740;2022-07-19T20:07:30;25.00;89.90
9403;DHT22;4741;49.834;10.740;2022-07-19T20:09:57;24.90;75.90
9403;DHT22;4741;49.834;10.740;2022-07-19T20:12:23;23.80;80.90
9403;DHT22;4741;49.834;10.740;2022-07-19T20:14:50;24.90;94.20
9403;DHT22;4741;49.834;10.740;2022-07-19T20:17:17;26.50;75.40
9403;DHT22;4741;49.834;10.740;2022-07-19T20:22:11;24.70;72.50
9403;DHT22;4741;49.834;10.740;2022-07-19T20:27:06;24.30;74.30
9403;DHT22;4741;49.834;10.740;2022-07-19T20:29:34;24.20;74.40
9403;DHT22;4741;49.834;10.740;2022-07-19T20:32:00;24.00;75.50
9403;DHT22;4741;49.834;10.740;2022-07-19T20:34:27;24.00;76.50
9403;DHT22;4741;49.834;10.740;2022-07-19T20:39:21;23.60;76.10
9403;DHT22;4741;49.834;10.740;2022-07-19T20:41:55;22.90;95.00
9403;DHT22;4741;49.834;10.740;2022-07-19T20:44:23;23.30;94.10
9403;DHT22;4741;49.834;10.740;2022-07-19T20:46:50;23.10;92.60
9403;DHT22;4741;49.834;10.740;2022-07-19T20:49:19;22.60;91.50
9403;DHT22;4741;49.834;10.740;2022-07-19T20:51:45;22.40;92.80
9403;DHT22;4741;49.834;10.740;2022-07-19T20:54:12;24.40;97.40
9403;DHT22;4741;49.834;10.740;2022-07-19T20:56:38;23.60;95.00
9403;DHT22;4741;49.834;10.740;2022-07-19T20:59:05;22.30;96.30
9403;DHT22;4741;49.834;10.740;2022-07-19T21:01:32;22.80;96.70
9403;DHT22;4741;49.834;10.740;2022-07-19T21:03:58;22.80;97.10
9403;DHT22;4741;49.834;10.740;2022-07-19T21:06:25;22.80;99.90
9403;DHT22;4741;49.834;10.740;2022-07-19T21:08:52;22.10;99.90
9403;DHT22;4741;49.834;10.740;2022-07-19T21:11:18;22.70;99.90
9403;DHT22;4741;49.834;10.740;2022-07-19T21:13:45;22.70;99.90
9403;DHT22;4741;49.834;10.740;2022-07-19T21:16:12;22.90;99.90